Clayton, Idaho
Current Conditions -  °F | °C
As of 11:55 PM on Friday 28 Nov 2014 (Local Time) from KLLJ Reporting Station
Light Rain Light Rain  
Wind Chill: 36°   Ceiling: 8000
Heat Index: 44°   Visibility: 10mi
Dew Point: 31°   Wind: 18mph
Humidity: 60%   Direction: 190°S
Pressure: 29.53"   Gusts: 25mph
Location:  44.26°N, 114.4°W
Report Text: KLLJ 290655Z AUTO 19016G22KT 10SM -RA SCT055 SCT070 BKN080 07/M01 A2953 RMK AO2 RAB52 SLP973 P0000 T00671006 401221006
Loading
Personal Weather Stations






























Interactive Weather Map New forecast layout! Learn more

10-Day Weather Forecast

Advertisements
Track Severe Weather on mobile